createdAt,value
2018-12-19T13:03:08.158Z,2.50
2018-12-19T13:05:38.196Z,2.70
2018-12-19T13:08:10.687Z,3.10
2018-12-19T13:10:40.014Z,2.67
2018-12-19T13:13:12.854Z,3.40
2018-12-19T13:15:46.513Z,3.58
2018-12-19T13:18:16.870Z,3.37
2018-12-19T13:20:46.385Z,3.42
2018-12-19T13:23:17.995Z,3.00
2018-12-19T13:25:47.730Z,3.02
2018-12-19T13:43:05.417Z,3.20
2018-12-19T13:45:37.092Z,2.87
2018-12-19T13:48:22.525Z,3.20
2018-12-19T13:50:51.944Z,3.12
2018-12-19T13:53:20.314Z,3.30
2018-12-19T13:55:48.690Z,2.95
2018-12-19T13:58:17.053Z,3.30
2018-12-19T14:00:45.534Z,2.60
2018-12-19T14:03:14.610Z,1.90
2018-12-19T14:05:43.366Z,2.40
2018-12-19T14:08:12.666Z,3.00
2018-12-19T14:10:41.589Z,3.00
2018-12-19T14:13:10.891Z,2.30
2018-12-19T14:15:40.263Z,2.63
2018-12-19T14:18:08.741Z,2.50
2018-12-19T14:20:38.587Z,2.23
2018-12-19T14:23:08.072Z,2.50
2018-12-19T14:25:37.790Z,2.10
2018-12-19T14:28:06.855Z,2.10
2018-12-19T14:30:35.490Z,2.25
2018-12-19T14:33:06.203Z,2.40
2018-12-19T14:35:34.788Z,2.55
2018-12-19T14:38:05.105Z,2.60
2018-12-19T14:40:33.711Z,2.40
2018-12-19T14:43:02.252Z,2.15
2018-12-19T14:45:30.816Z,2.50
2018-12-19T14:47:59.954Z,2.40
2018-12-19T14:50:28.391Z,2.90
2018-12-19T14:52:57.237Z,2.45
2018-12-19T14:55:25.699Z,2.40
2018-12-19T14:57:56.187Z,3.47
2018-12-19T15:00:25.148Z,3.15
2018-12-19T15:02:54.591Z,2.85
2018-12-19T15:05:24.666Z,4.25
2018-12-19T15:07:54.099Z,3.00
2018-12-19T15:10:23.101Z,2.60
2018-12-19T15:12:53.332Z,3.47
2018-12-19T15:15:22.812Z,3.22
2018-12-19T15:17:52.046Z,2.65
2018-12-19T15:20:20.385Z,2.50
2018-12-19T15:22:50.103Z,3.22
2018-12-19T15:25:19.099Z,2.65
2018-12-19T15:27:49.851Z,3.25
2018-12-19T15:30:18.569Z,3.02
2018-12-19T15:32:48.247Z,2.83
2018-12-19T15:35:16.912Z,3.75
2018-12-19T15:37:45.926Z,3.70
2018-12-19T15:40:16.235Z,3.42
2018-12-19T15:42:45.573Z,2.67
2018-12-19T15:45:15.600Z,2.62
2018-12-19T15:47:44.602Z,2.80
2018-12-19T15:50:13.055Z,2.90
2018-12-19T15:52:44.078Z,4.10
2018-12-19T15:55:14.876Z,2.58
2018-12-19T15:57:45.507Z,3.12
2018-12-19T16:00:17.064Z,3.95
2018-12-19T16:02:48.253Z,3.62
2018-12-19T16:05:23.430Z,3.83
2018-12-19T16:07:55.118Z,4.00
2018-12-19T16:10:26.362Z,3.47
2018-12-19T16:12:55.379Z,3.05
2018-12-19T16:15:31.758Z,3.50
2018-12-19T16:18:02.718Z,4.00
2018-12-19T16:20:32.091Z,4.30
2018-12-19T16:23:02.347Z,4.80
2018-12-19T19:30:50.545Z,5.40
2018-12-19T19:38:22.529Z,5.60
2018-12-19T20:55:56.443Z,4.10
2018-12-19T20:58:28.791Z,3.87
2018-12-19T21:00:59.612Z,3.75
2018-12-19T21:03:37.722Z,3.10
2018-12-19T21:06:16.054Z,3.98
2018-12-19T21:08:48.230Z,4.80
2018-12-19T21:11:20.035Z,4.90
2018-12-19T21:13:50.887Z,3.17
2018-12-19T21:16:30.486Z,4.58
2018-12-19T21:19:06.663Z,3.85
2018-12-19T21:21:45.796Z,3.92
2018-12-19T21:24:16.027Z,3.70
2018-12-19T21:26:47.232Z,4.40
2018-12-19T21:31:53.762Z,3.77
2018-12-19T21:34:23.631Z,3.72
2018-12-19T21:36:54.254Z,4.00
2018-12-19T21:39:36.108Z,3.50
2018-12-19T21:42:18.627Z,3.52
2018-12-19T21:44:51.120Z,5.62
2018-12-19T21:47:33.419Z,4.65
2018-12-19T21:50:16.080Z,4.05
2018-12-19T21:52:52.030Z,3.40
2018-12-19T21:55:30.379Z,3.45
2018-12-19T21:58:08.671Z,3.35
2018-12-19T22:00:46.261Z,3.75
